Time;durP1;ratioP1;P1;durP2;ratioP2;P2;SDS_P1;SDS_P2;PMS_P1;PMS_P2;Temp;Humidity;BMP_temperature;BMP_pressure;BME280_temperature;BME280_humidity;BME280_pressure;Samples;Min_cycle;Max_cycle;Signal;HPM_P1;HPM_P2
2022/04/10 00:02:26;;;;;;;5.00;2.10;;;4.00;99.90;;;;;;4901457;29;20484;-61
2022/04/10 00:04:54;;;;;;;9.97;2.23;;;4.00;99.90;;;;;;4901006;29;20850;-60
2022/04/10 00:07:22;;;;;;;12.27;2.33;;;3.90;99.90;;;;;;4907455;29;20974;-61
2022/04/10 00:09:51;;;;;;;6.40;1.93;;;3.90;99.90;;;;;;4901238;29;20468;-61
2022/04/10 00:12:20;;;;;;;8.63;2.10;;;4.10;99.90;;;;;;4901096;29;20477;-60
2022/04/10 00:14:48;;;;;;;8.40;2.40;;;4.10;99.90;;;;;;4903612;29;20892;-61
2022/04/10 00:17:16;;;;;;;8.00;2.10;;;4.00;99.90;;;;;;4903735;29;20495;-60
2022/04/10 00:19:45;;;;;;;9.50;2.10;;;4.00;99.90;;;;;;4903140;29;20981;-60
2022/04/10 00:22:13;;;;;;;7.17;2.50;;;4.00;99.90;;;;;;4904147;29;20990;-60
2022/04/10 00:24:42;;;;;;;9.10;3.20;;;3.90;99.90;;;;;;4900663;29;20492;-60
2022/04/10 00:27:13;;;;;;;9.03;2.13;;;3.90;99.90;;;;;;4906522;29;20475;-60
2022/04/10 00:29:42;;;;;;;5.50;2.30;;;3.90;99.90;;;;;;4893758;29;20495;-60
2022/04/10 00:32:10;;;;;;;6.00;2.03;;;3.90;99.90;;;;;;4898539;29;20487;-60
2022/04/10 00:34:42;;;;;;;7.47;2.97;;;3.80;99.90;;;;;;4887593;29;20491;-60
2022/04/10 00:37:10;;;;;;;5.50;1.70;;;3.70;99.90;;;;;;4898245;29;20485;-60
2022/04/10 01:17:31;;;;;;;8.77;3.53;;;3.40;99.90;;;;;;4906247;29;20470;-60
2022/04/10 01:20:00;;;;;;;9.73;3.60;;;3.30;99.90;;;;;;4892770;29;20486;-60
2022/04/10 01:22:36;;;;;;;6.40;3.23;;;3.20;99.90;;;;;;4896590;29;20473;-60
2022/04/10 01:25:11;;;;;;;8.90;3.80;;;3.20;99.90;;;;;;4895525;29;20484;-60
2022/04/10 01:27:43;;;;;;;8.00;3.70;;;3.20;99.90;;;;;;4894848;29;20487;-60
2022/04/10 01:30:14;;;;;;;7.47;3.20;;;3.20;99.90;;;;;;4901271;29;20581;-61
2022/04/10 01:32:45;;;;;;;9.40;3.23;;;3.20;99.90;;;;;;4888553;29;21077;-61
2022/04/10 01:35:13;;;;;;;8.10;3.20;;;3.20;99.90;;;;;;4902945;29;20486;-61
2022/04/10 01:37:43;;;;;;;7.63;3.00;;;3.10;99.90;;;;;;4895355;29;20550;-60
2022/04/10 01:40:17;;;;;;;10.03;2.67;;;3.20;99.90;;;;;;4895747;29;20480;-60
2022/04/10 01:42:45;;;;;;;8.20;3.00;;;3.10;99.90;;;;;;4900553;29;20512;-60
2022/04/10 01:45:14;;;;;;;8.60;2.33;;;3.20;99.90;;;;;;4894786;29;20533;-59
2022/04/10 01:47:42;;;;;;;8.33;2.00;;;3.20;99.90;;;;;;4896638;29;20586;-60
2022/04/10 01:50:12;;;;;;;5.70;1.90;;;3.20;99.90;;;;;;4896643;29;20541;-60
2022/04/10 01:52:40;;;;;;;6.87;1.87;;;3.20;99.90;;;;;;4889197;29;21069;-60
2022/04/10 01:55:10;;;;;;;7.97;2.80;;;3.10;99.90;;;;;;4895253;29;20512;-60
2022/04/10 01:57:40;;;;;;;11.43;2.17;;;3.10;99.90;;;;;;4889335;29;21056;-61
2022/04/10 02:00:12;;;;;;;9.27;2.10;;;3.00;99.90;;;;;;4900574;29;20487;-60
2022/04/10 02:02:40;;;;;;;6.47;1.90;;;3.10;99.90;;;;;;4888890;29;21008;-60
2022/04/10 02:05:09;;;;;;;5.53;1.57;;;3.00;99.90;;;;;;4894978;29;20485;-60
2022/04/10 02:07:37;;;;;;;6.40;1.97;;;3.00;99.90;;;;;;4894820;29;20486;-60
2022/04/10 02:10:06;;;;;;;9.20;2.50;;;3.10;99.90;;;;;;4895217;29;21020;-61
2022/04/10 02:12:36;;;;;;;9.63;2.30;;;3.10;99.90;;;;;;4894660;29;20478;-60
2022/04/10 02:15:05;;;;;;;11.53;2.77;;;3.10;99.90;;;;;;4894891;29;21012;-60
2022/04/10 02:17:33;;;;;;;5.93;1.90;;;3.20;99.90;;;;;;4894818;29;20481;-60
2022/04/10 02:20:02;;;;;;;8.07;2.40;;;3.20;99.90;;;;;;4903580;29;21032;-60
2022/04/10 02:22:30;;;;;;;6.37;2.10;;;3.30;99.90;;;;;;4898898;29;20539;-59
2022/04/10 02:24:58;;;;;;;8.93;2.00;;;3.30;99.90;;;;;;4898810;29;21002;-60
2022/04/10 02:27:27;;;;;;;10.50;2.30;;;3.30;99.90;;;;;;4896386;29;21010;-61
2022/04/10 02:29:57;;;;;;;4.17;2.23;;;3.20;99.90;;;;;;4898153;29;20492;-60
2022/04/10 02:32:29;;;;;;;7.30;2.23;;;3.10;99.90;;;;;;4895123;29;20496;-61
2022/04/10 02:34:58;;;;;;;6.07;2.00;;;3.10;99.90;;;;;;4898726;29;20499;-61
2022/04/10 02:37:26;;;;;;;7.70;2.40;;;3.10;99.90;;;;;;4895834;29;20473;-62
2022/04/10 02:39:54;;;;;;;6.57;2.43;;;3.20;99.90;;;;;;4896337;29;20520;-60
2022/04/10 02:42:23;;;;;;;9.60;2.40;;;3.20;99.90;;;;;;4895182;29;21016;-60
2022/04/10 02:44:51;;;;;;;12.03;2.60;;;3.10;99.90;;;;;;4897494;29;20477;-60
2022/04/10 02:47:21;;;;;;;4.77;2.23;;;3.20;99.90;;;;;;4896513;29;20533;-60
2022/04/10 02:49:50;;;;;;;5.20;2.40;;;3.20;99.90;;;;;;4895995;29;20489;-61
2022/04/10 02:52:18;;;;;;;8.07;2.77;;;3.40;99.90;;;;;;4896650;29;20478;-60
2022/04/10 02:54:46;;;;;;;7.53;2.80;;;3.40;99.90;;;;;;4896414;29;20498;-61
2022/04/10 02:57:14;;;;;;;6.67;2.87;;;3.40;99.90;;;;;;4899631;29;20564;-60
2022/04/10 02:59:42;;;;;;;9.33;3.23;;;3.40;99.90;;;;;;4901046;29;20482;-60
2022/04/10 03:02:11;;;;;;;9.23;2.93;;;3.30;99.90;;;;;;4895139;29;20474;-60
2022/04/10 03:04:42;;;;;;;11.40;3.50;;;3.20;99.90;;;;;;4892844;29;20550;-60
2022/04/10 03:07:10;;;;;;;8.97;3.10;;;3.30;99.90;;;;;;4895549;29;20552;-60
2022/04/10 03:09:39;;;;;;;5.97;2.70;;;3.30;99.90;;;;;;4876982;29;20500;-60
2022/04/10 03:12:09;;;;;;;7.53;2.80;;;3.30;99.90;;;;;;4893874;29;20568;-61
2022/04/10 03:14:37;;;;;;;10.50;2.60;;;3.30;99.90;;;;;;4893623;29;21011;-60
2022/04/10 03:17:06;;;;;;;7.23;2.13;;;3.40;99.90;;;;;;4895521;29;20486;-60
2022/04/10 03:19:34;;;;;;;8.53;2.40;;;3.30;99.90;;;;;;4900851;29;20508;-60
2022/04/10 03:22:04;;;;;;;9.67;2.63;;;3.30;99.90;;;;;;4902671;29;20509;-60
2022/04/10 03:24:32;;;;;;;5.83;2.37;;;3.20;99.90;;;;;;4894514;29;20531;-59
2022/04/10 03:27:01;;;;;;;9.93;2.63;;;3.20;99.90;;;;;;4893966;29;20837;-60
2022/04/10 03:29:30;;;;;;;6.33;2.00;;;3.20;99.90;;;;;;4901410;29;20482;-60
2022/04/10 03:31:58;;;;;;;9.90;2.70;;;3.20;99.90;;;;;;4893774;29;20573;-60
2022/04/10 03:34:27;;;;;;;4.47;2.03;;;3.10;99.90;;;;;;4894745;29;20481;-59
2022/04/10 03:36:55;;;;;;;6.87;2.20;;;3.00;99.90;;;;;;4894026;29;20483;-60
2022/04/10 03:39:26;;;;;;;9.70;2.63;;;3.00;99.90;;;;;;4893999;29;20478;-60
2022/04/10 03:41:55;;;;;;;6.47;2.20;;;3.00;99.90;;;;;;4895286;29;20481;-60
2022/04/10 03:44:23;;;;;;;10.17;2.30;;;3.00;99.90;;;;;;4895111;29;21047;-60
2022/04/10 03:46:52;;;;;;;7.33;2.00;;;3.00;99.90;;;;;;4893811;29;20490;-60
2022/04/10 03:49:20;;;;;;;4.77;1.93;;;3.00;99.90;;;;;;4893875;29;20475;-60
2022/04/10 03:51:48;;;;;;;5.77;1.70;;;2.90;99.90;;;;;;4900566;29;20509;-60
2022/04/10 03:54:16;;;;;;;7.17;2.10;;;2.90;99.90;;;;;;4893575;29;20904;-60
2022/04/10 03:56:46;;;;;;;10.17;2.40;;;2.90;99.90;;;;;;4893172;29;20478;-61
2022/04/10 03:59:14;;;;;;;7.93;2.27;;;2.90;99.90;;;;;;4901373;29;20485;-61
2022/04/10 04:01:43;;;;;;;11.63;2.50;;;3.00;99.90;;;;;;4893318;29;20483;-60
2022/04/10 04:04:12;;;;;;;7.30;1.80;;;2.90;99.90;;;;;;4893447;29;20484;-61
2022/04/10 04:06:41;;;;;;;9.03;2.60;;;2.90;99.90;;;;;;4893964;29;20495;-60
2022/04/10 04:09:09;;;;;;;9.40;2.30;;;2.80;99.90;;;;;;4898511;29;21068;-61
2022/04/10 04:11:38;;;;;;;8.10;2.30;;;2.80;99.90;;;;;;4902635;29;20480;-60
2022/04/10 04:14:08;;;;;;;8.53;2.40;;;2.80;99.90;;;;;;4897130;29;20492;-61
2022/04/10 04:16:37;;;;;;;8.43;2.53;;;2.80;99.90;;;;;;4896666;29;20997;-61
2022/04/10 04:19:06;;;;;;;11.87;2.57;;;2.80;99.90;;;;;;4896960;29;21010;-61
2022/04/10 04:21:34;;;;;;;7.77;2.43;;;2.80;99.90;;;;;;4902057;29;20475;-60
2022/04/10 04:24:03;;;;;;;9.60;2.80;;;2.90;99.90;;;;;;4902739;29;20499;-60
2022/04/10 04:26:31;;;;;;;9.20;2.47;;;2.90;99.90;;;;;;4892161;29;21059;-60
2022/04/10 04:29:07;;;;;;;9.47;2.77;;;3.00;99.90;;;;;;4902710;29;20485;-60
2022/04/10 04:31:35;;;;;;;10.90;2.23;;;3.00;99.90;;;;;;4896283;29;20492;-61
2022/04/10 04:34:04;;;;;;;7.77;2.27;;;3.00;99.90;;;;;;4897671;29;20479;-60
2022/04/10 04:36:32;;;;;;;10.80;2.40;;;3.00;99.90;;;;;;4896518;29;20522;-59
2022/04/10 04:39:00;;;;;;;10.47;3.00;;;3.00;99.90;;;;;;4896803;29;20485;-60
2022/04/10 04:41:29;;;;;;;10.87;2.87;;;3.10;99.90;;;;;;4902230;29;20506;-61
2022/04/10 04:43:57;;;;;;;10.83;2.90;;;3.10;99.90;;;;;;4901666;29;20993;-61
2022/04/10 04:46:27;;;;;;;8.83;2.60;;;3.10;99.90;;;;;;4896523;29;20481;-60
2022/04/10 04:48:55;;;;;;;7.57;2.63;;;3.10;99.90;;;;;;4896425;29;20467;-60
2022/04/10 04:51:24;;;;;;;9.77;2.60;;;3.20;99.90;;;;;;4902111;29;20558;-61
2022/04/10 04:53:52;;;;;;;12.30;2.53;;;3.20;99.90;;;;;;4896048;29;20539;-60
2022/04/10 04:56:22;;;;;;;11.33;3.50;;;3.30;99.90;;;;;;4896493;29;20483;-60
2022/04/10 04:58:51;;;;;;;12.73;3.70;;;3.20;99.90;;;;;;4905530;29;20492;-60
2022/04/10 05:01:19;;;;;;;11.17;2.90;;;3.20;99.90;;;;;;4896044;29;20477;-60
2022/04/10 05:03:50;;;;;;;11.07;2.80;;;3.20;99.90;;;;;;4901193;29;20480;-60
2022/04/10 05:06:19;;;;;;;9.53;2.33;;;3.20;99.90;;;;;;4895961;29;20844;-60
2022/04/10 05:08:47;;;;;;;7.37;2.13;;;3.10;99.90;;;;;;4895765;29;20496;-61
2022/04/10 05:11:17;;;;;;;9.20;1.90;;;3.10;99.90;;;;;;4898095;29;20483;-60
2022/04/10 05:13:45;;;;;;;6.10;1.50;;;3.00;99.90;;;;;;4895672;29;20471;-60
2022/04/10 05:16:14;;;;;;;4.50;1.30;;;3.00;99.90;;;;;;4896824;29;20860;-61
2022/04/10 05:18:47;;;;;;;4.87;1.30;;;3.00;99.90;;;;;;4898847;29;20997;-61
2022/04/10 05:21:17;;;;;;;5.60;1.50;;;3.00;99.90;;;;;;4904392;29;20466;-60
2022/04/10 05:23:46;;;;;;;6.40;1.50;;;3.00;99.90;;;;;;4901043;29;20550;-60
2022/04/10 05:26:19;;;;;;;7.90;1.90;;;3.00;99.90;;;;;;4894859;29;20482;-60
2022/04/10 05:28:53;;;;;;;8.30;2.20;;;3.00;99.90;;;;;;4892151;29;20496;-61
2022/04/10 05:31:26;;;;;;;8.57;2.30;;;3.10;99.90;;;;;;4893990;29;20490;-61
2022/04/10 05:33:55;;;;;;;6.93;2.47;;;3.20;99.90;;;;;;4894480;29;20482;-60
2022/04/10 05:36:25;;;;;;;9.47;2.40;;;3.20;99.90;;;;;;4889064;29;20562;-61
2022/04/10 05:38:53;;;;;;;10.43;2.87;;;3.30;99.90;;;;;;4886244;29;20505;-61
2022/04/10 05:41:24;;;;;;;7.97;2.60;;;3.30;99.90;;;;;;4888779;29;20540;-61
2022/04/10 05:43:58;;;;;;;11.43;3.20;;;3.30;99.90;;;;;;4890908;29;20566;-61
2022/04/10 05:46:26;;;;;;;8.03;2.73;;;3.50;99.90;;;;;;4900344;29;20477;-61
2022/04/10 05:48:58;;;;;;;17.10;4.27;;;3.50;99.90;;;;;;4891552;29;20493;-59
2022/04/10 05:51:29;;;;;;;9.30;3.03;;;3.50;99.90;;;;;;4888662;29;20477;-60
2022/04/10 05:53:57;;;;;;;16.97;3.33;;;3.50;99.90;;;;;;4898798;29;20578;-60
2022/04/10 05:56:27;;;;;;;12.37;3.10;;;3.60;99.90;;;;;;4890782;29;20488;-60
2022/04/10 05:58:55;;;;;;;11.17;3.30;;;3.50;99.90;;;;;;4894990;29;20511;-62
2022/04/10 06:01:24;;;;;;;11.50;2.60;;;3.50;99.90;;;;;;4887715;29;20578;-61
2022/04/10 06:03:54;;;;;;;13.33;3.60;;;3.60;99.90;;;;;;4890736;29;20492;-61
2022/04/10 06:06:22;;;;;;;16.40;3.07;;;3.50;99.90;;;;;;4894098;29;20488;-61
2022/04/10 06:09:02;;;;;;;11.13;3.00;;;3.50;99.90;;;;;;4896029;29;20486;-61
2022/04/10 06:11:32;;;;;;;10.23;2.73;;;3.50;99.90;;;;;;4899566;29;21214;-61
2022/04/10 06:14:01;;;;;;;8.80;2.70;;;3.50;99.90;;;;;;4895367;29;20488;-61
2022/04/10 06:16:30;;;;;;;13.57;3.33;;;3.50;99.90;;;;;;4894627;29;20565;-61
2022/04/10 06:18:59;;;;;;;11.20;3.40;;;3.50;99.90;;;;;;4898436;29;20479;-61
2022/04/10 06:21:28;;;;;;;12.00;3.17;;;3.60;99.90;;;;;;4900311;29;20520;-61
2022/04/10 06:23:57;;;;;;;9.73;2.70;;;3.60;99.90;;;;;;4900265;29;21066;-61
2022/04/10 06:26:32;;;;;;;9.30;2.67;;;3.70;99.90;;;;;;4894465;29;21014;-60
2022/04/10 06:29:01;;;;;;;10.47;2.77;;;3.70;99.90;;;;;;4893044;29;20485;-61
2022/04/10 06:31:44;;;;;;;18.13;4.10;;;3.90;99.90;;;;;;4898042;29;20491;-59
2022/04/10 06:34:14;;;;;;;10.27;2.70;;;3.80;99.90;;;;;;4889950;29;20247;-60
2022/04/10 06:36:43;;;;;;;9.73;2.80;;;3.80;99.90;;;;;;4894327;29;20486;-59
2022/04/10 06:39:16;;;;;;;10.67;2.63;;;3.80;99.90;;;;;;4894224;29;20481;-60
2022/04/10 06:41:48;;;;;;;12.40;3.10;;;3.90;99.90;;;;;;4899445;29;20885;-59
2022/04/10 06:44:35;;;;;;;8.63;2.27;;;3.90;99.90;;;;;;4891553;29;20505;-59
2022/04/10 06:47:16;;;;;;;11.73;3.00;;;4.00;99.90;;;;;;4894280;29;20500;-59
2022/04/10 06:49:45;;;;;;;8.43;2.57;;;4.10;99.90;;;;;;4895340;29;20627;-60
2022/04/10 06:52:13;;;;;;;8.10;2.33;;;4.20;99.90;;;;;;4898637;29;20930;-60
2022/04/10 06:54:42;;;;;;;6.80;3.00;;;4.10;99.90;;;;;;4892138;29;20488;-59
2022/04/10 06:57:14;;;;;;;6.97;2.30;;;4.20;99.90;;;;;;4894129;29;20491;-60
2022/04/10 06:59:42;;;;;;;12.50;2.90;;;4.30;99.90;;;;;;4896016;29;20486;-60
2022/04/10 07:02:12;;;;;;;11.10;2.47;;;4.20;99.90;;;;;;4893998;29;20474;-60
2022/04/10 07:04:41;;;;;;;10.60;2.77;;;4.20;99.90;;;;;;4895751;29;20513;-61
2022/04/10 07:07:10;;;;;;;12.33;3.10;;;4.30;99.90;;;;;;4897530;29;20557;-60
2022/04/10 07:09:38;;;;;;;15.13;2.90;;;4.60;99.90;;;;;;4883009;29;20533;-59
2022/04/10 07:12:07;;;;;;;7.83;2.60;;;5.00;99.90;;;;;;4894055;29;20517;-60
2022/04/10 07:14:42;;;;;;;8.80;2.20;;;5.40;99.90;;;;;;4893751;29;21014;-60
2022/04/10 07:17:11;;;;;;;6.57;2.00;;;5.50;99.90;;;;;;4894220;29;20481;-60
2022/04/10 07:19:39;;;;;;;7.03;2.30;;;5.80;99.90;;;;;;4891175;29;20478;-59
2022/04/10 07:24:58;;;;;;;10.10;2.67;;;6.10;99.90;;;;;;4876393;29;20244;-59
2022/04/10 07:27:27;;;;;;;7.97;2.80;;;5.90;99.90;;;;;;4893341;29;20327;-59
2022/04/10 07:30:08;;;;;;;7.13;2.13;;;5.70;99.90;;;;;;4894292;29;20484;-60
2022/04/10 07:32:40;;;;;;;6.17;2.53;;;5.50;99.90;;;;;;4892255;29;20512;-60
2022/04/10 07:35:17;;;;;;;12.93;2.80;;;5.20;99.90;;;;;;4900057;29;20265;-59
2022/04/10 07:38:08;;;;;;;8.40;2.83;;;5.00;99.90;;;;;;4895235;29;20244;-59
2022/04/10 07:40:38;;;;;;;10.00;2.43;;;4.90;99.90;;;;;;4900210;29;20560;-59
2022/04/10 07:43:09;;;;;;;7.03;2.23;;;4.70;99.90;;;;;;4901911;29;20556;-60
2022/04/10 07:48:38;;;;;;;7.53;1.87;;;4.50;99.90;;;;;;4897708;29;20477;-59
2022/04/10 07:51:07;;;;;;;5.53;1.87;;;4.60;99.90;;;;;;4902392;29;20478;-60
2022/04/10 07:53:49;;;;;;;8.53;2.37;;;4.50;99.90;;;;;;4897658;29;20472;-59
2022/04/10 07:56:17;;;;;;;4.50;1.40;;;4.50;99.90;;;;;;4903219;29;20484;-60
2022/04/10 07:58:46;;;;;;;10.17;1.60;;;4.40;99.90;;;;;;4897555;29;20457;-60
2022/04/10 08:01:24;;;;;;;4.97;1.43;;;4.40;99.90;;;;;;4898667;29;20496;-60
2022/04/10 08:03:53;;;;;;;8.53;1.40;;;4.20;99.90;;;;;;4897756;29;20484;-59
2022/04/10 08:06:40;;;;;;;4.30;1.70;;;4.00;99.90;;;;;;4898366;29;20516;-59
2022/04/10 08:09:08;;;;;;;4.17;1.10;;;3.90;99.90;;;;;;4898892;29;20476;-60
2022/04/10 08:11:36;;;;;;;4.20;1.30;;;3.80;99.90;;;;;;4904367;29;20477;-59
2022/04/10 08:14:04;;;;;;;3.70;1.20;;;3.70;99.90;;;;;;4898858;29;21057;-60
2022/04/10 08:16:34;;;;;;;3.83;1.10;;;3.60;99.90;;;;;;4904241;29;20492;-60
2022/04/10 08:19:02;;;;;;;6.30;1.70;;;3.50;99.90;;;;;;4902994;29;20483;-59
2022/04/10 08:21:30;;;;;;;5.67;1.30;;;3.40;99.90;;;;;;4903897;29;20544;-59
2022/04/10 08:23:58;;;;;;;10.07;1.57;;;3.40;99.90;;;;;;4903789;29;20479;-60
2022/04/10 08:26:26;;;;;;;5.33;1.40;;;3.40;99.90;;;;;;4904003;29;20563;-59
2022/04/10 08:28:54;;;;;;;7.57;1.43;;;3.50;99.90;;;;;;4898846;29;20468;-60
2022/04/10 08:31:23;;;;;;;2.83;1.33;;;3.60;99.90;;;;;;4899712;29;20481;-60
2022/04/10 08:33:53;;;;;;;5.80;1.40;;;3.80;99.90;;;;;;4898444;29;20536;-60
2022/04/10 08:36:21;;;;;;;6.57;1.33;;;4.00;99.90;;;;;;4898176;29;20482;-59
2022/04/10 08:38:49;;;;;;;5.17;1.13;;;4.20;99.90;;;;;;4898348;29;20479;-60
2022/04/10 08:41:18;;;;;;;6.20;1.77;;;4.40;99.90;;;;;;4904097;29;20517;-60
2022/04/10 08:43:46;;;;;;;5.40;1.40;;;4.40;99.90;;;;;;4903796;29;21597;-60
2022/04/10 08:46:16;;;;;;;4.63;1.43;;;4.80;99.90;;;;;;4903837;29;20498;-59
2022/04/10 08:48:45;;;;;;;5.50;1.30;;;5.20;99.90;;;;;;4897687;29;20564;-60
2022/04/10 08:51:14;;;;;;;4.70;1.50;;;5.50;99.90;;;;;;4902757;29;20813;-60
2022/04/10 08:53:44;;;;;;;5.60;1.47;;;5.80;99.90;;;;;;4897351;29;20605;-59
2022/04/10 08:56:12;;;;;;;5.50;1.53;;;6.20;99.90;;;;;;4903860;29;20484;-60
2022/04/10 08:58:40;;;;;;;4.07;1.30;;;6.40;99.90;;;;;;4896831;29;20240;-60
2022/04/10 09:01:11;;;;;;;7.50;1.93;;;6.60;99.90;;;;;;4909959;29;20273;-60
2022/04/10 09:03:40;;;;;;;6.83;1.77;;;5.90;99.90;;;;;;4903187;29;20283;-59
2022/04/10 09:06:11;;;;;;;6.17;1.47;;;5.20;99.90;;;;;;4903661;29;20248;-59
2022/04/10 09:08:40;;;;;;;6.53;1.23;;;4.80;99.90;;;;;;4897500;29;20238;-59
2022/04/10 09:11:10;;;;;;;5.63;1.33;;;4.50;99.90;;;;;;4903403;29;20512;-59
2022/04/10 09:13:39;;;;;;;5.87;1.63;;;4.30;99.90;;;;;;4889959;29;20252;-60
2022/04/10 09:16:10;;;;;;;5.97;1.30;;;4.40;99.90;;;;;;4897497;29;20248;-59
2022/04/10 09:19:07;;;;;;;4.47;0.97;;;4.50;99.90;;;;;;4896577;29;20594;-59
2022/04/10 09:21:38;;;;;;;3.97;1.30;;;4.60;99.90;;;;;;4891650;29;20247;-59
2022/04/10 09:24:09;;;;;;;6.10;1.43;;;4.60;99.90;;;;;;4901615;29;20537;-59
2022/04/10 09:26:46;;;;;;;4.77;1.33;;;4.60;99.90;;;;;;4897300;29;20478;-60
2022/04/10 09:29:16;;;;;;;11.53;1.20;;;4.80;99.90;;;;;;4898818;29;20487;-59
2022/04/10 09:31:45;;;;;;;6.90;1.23;;;5.00;99.90;;;;;;4896904;29;20473;-60
2022/04/10 09:34:16;;;;;;;3.10;1.10;;;5.20;99.90;;;;;;4897161;29;20705;-59
2022/04/10 09:37:05;;;;;;;3.70;1.00;;;5.50;99.90;;;;;;4901461;29;21001;-59
2022/04/10 09:39:36;;;;;;;6.63;1.63;;;5.80;99.90;;;;;;4897715;29;20886;-59
2022/04/10 09:42:06;;;;;;;5.47;1.03;;;6.40;99.90;;;;;;4905960;29;20478;-60
2022/04/10 09:44:35;;;;;;;3.37;1.20;;;7.00;99.90;;;;;;4897212;29;20242;-59
2022/04/10 09:47:06;;;;;;;5.67;1.57;;;7.40;99.90;;;;;;4897102;29;20268;-60
2022/04/10 09:49:36;;;;;;;6.63;1.20;;;7.80;99.90;;;;;;4896753;29;20257;-60
2022/04/10 09:52:06;;;;;;;5.90;1.57;;;8.30;99.90;;;;;;4901334;29;20237;-60
2022/04/10 09:54:42;;;;;;;4.20;1.23;;;8.60;99.90;;;;;;4896857;29;20241;-59
2022/04/10 09:57:12;;;;;;;4.73;1.23;;;9.10;99.90;;;;;;4896899;29;20581;-60
2022/04/10 09:59:43;;;;;;;5.17;1.37;;;9.50;99.90;;;;;;4899315;29;20241;-60
2022/04/10 10:02:13;;;;;;;5.13;1.50;;;10.00;99.90;;;;;;4905698;29;20232;-59
2022/04/10 10:04:43;;;;;;;7.00;1.40;;;9.60;99.90;;;;;;4878848;29;20237;-60
2022/04/10 10:07:12;;;;;;;7.20;2.10;;;10.20;99.90;;;;;;4896471;29;20256;-59
2022/04/10 10:09:43;;;;;;;8.00;1.80;;;10.30;99.90;;;;;;4879474;29;20241;-59
2022/04/10 10:12:11;;;;;;;12.10;2.53;;;10.70;99.90;;;;;;4896715;29;20284;-59
2022/04/10 10:14:40;;;;;;;8.30;2.00;;;10.50;99.90;;;;;;4896377;29;20253;-59
2022/04/10 10:17:09;;;;;;;5.63;1.40;;;9.60;99.90;;;;;;4896557;29;20781;-59
2022/04/10 10:19:39;;;;;;;5.77;1.13;;;7.50;99.90;;;;;;4896210;29;20694;-59
2022/04/10 10:22:08;;;;;;;3.53;1.27;;;6.20;99.90;;;;;;4905261;29;20636;-59
2022/04/10 10:24:45;;;;;;;3.70;1.07;;;5.60;99.90;;;;;;4896388;29;20724;-60
2022/04/10 10:27:56;;;;;;;5.07;1.33;;;5.40;99.90;;;;;;4896392;29;20245;-60
2022/04/10 10:30:30;;;;;;;3.90;1.40;;;5.40;99.90;;;;;;4897680;29;20292;-60
2022/04/10 10:33:16;;;;;;;5.77;1.73;;;5.80;99.90;;;;;;4895731;29;20328;-60
2022/04/10 10:35:48;;;;;;;6.13;1.57;;;6.50;99.90;;;;;;4896082;29;20646;-60
2022/04/10 10:38:21;;;;;;;3.33;1.03;;;7.00;99.90;;;;;;4896205;29;20309;-60
2022/04/10 10:40:50;;;;;;;5.90;1.50;;;7.20;99.90;;;;;;4895791;29;20237;-60
2022/04/10 10:43:24;;;;;;;3.93;1.23;;;7.20;99.90;;;;;;4901814;29;20237;-60
2022/04/10 10:45:53;;;;;;;6.77;1.27;;;7.20;99.90;;;;;;4896168;29;20305;-60
2022/04/10 10:48:42;;;;;;;4.13;1.43;;;7.60;99.90;;;;;;4895467;29;20724;-60
2022/04/10 10:51:39;;;;;;;4.47;1.40;;;7.80;99.90;;;;;;4900802;29;20277;-60
2022/04/10 10:54:10;;;;;;;6.10;1.83;;;7.90;99.90;;;;;;4895905;29;20675;-59
2022/04/10 10:56:40;;;;;;;6.17;1.60;;;8.30;99.90;;;;;;4901414;29;20237;-59
2022/04/10 10:59:39;;;;;;;10.87;1.97;;;8.60;99.90;;;;;;4896726;29;20239;-60
2022/04/10 11:02:10;;;;;;;5.13;1.57;;;9.10;99.90;;;;;;4884132;29;20232;-59
2022/04/10 11:04:57;;;;;;;5.57;2.13;;;9.10;99.90;;;;;;4880545;29;20237;-59
2022/04/10 11:07:27;;;;;;;6.53;1.90;;;8.70;99.90;;;;;;4895851;29;20237;-56
2022/04/10 11:09:59;;;;;;;7.63;1.70;;;8.40;99.90;;;;;;4895600;29;20266;-59
2022/04/10 11:12:31;;;;;;;9.90;1.80;;;8.90;99.90;;;;;;4895112;29;20244;-60
2022/04/10 11:15:06;;;;;;;4.97;1.40;;;9.70;99.90;;;;;;4895406;29;20244;-60
2022/04/10 11:17:34;;;;;;;6.27;1.70;;;9.80;99.90;;;;;;4895105;29;20323;-59
2022/04/10 11:20:07;;;;;;;5.30;1.33;;;9.50;99.90;;;;;;4898768;29;20276;-60
2022/04/10 11:22:37;;;;;;;9.73;1.87;;;9.00;99.90;;;;;;4901090;29;20252;-59
2022/04/10 11:25:06;;;;;;;4.87;1.33;;;7.80;99.90;;;;;;4895102;29;20271;-60
2022/04/10 11:27:42;;;;;;;5.80;1.50;;;6.60;99.90;;;;;;4895086;29;20237;-59
2022/04/10 11:30:13;;;;;;;2.67;0.70;;;5.90;99.90;;;;;;4896942;29;20703;-60
2022/04/10 11:32:46;;;;;;;4.53;1.00;;;5.30;99.90;;;;;;4887834;29;20355;-59
2022/04/10 11:35:17;;;;;;;4.43;1.00;;;5.30;99.90;;;;;;4895319;29;20234;-60
2022/04/10 11:37:47;;;;;;;5.27;1.70;;;5.40;99.90;;;;;;4895032;29;20244;-59
2022/04/10 11:40:19;;;;;;;6.53;1.37;;;5.70;99.90;;;;;;4895262;29;20260;-60
2022/04/10 11:42:47;;;;;;;8.57;2.10;;;6.10;99.90;;;;;;4895052;29;20312;-60
2022/04/10 11:45:18;;;;;;;10.40;1.80;;;6.40;99.90;;;;;;4895280;29;20241;-59
2022/04/10 11:47:46;;;;;;;10.80;2.13;;;6.90;99.90;;;;;;4895097;29;20251;-60
2022/04/10 11:50:14;;;;;;;7.93;1.83;;;7.20;99.90;;;;;;4901024;29;20241;-60
2022/04/10 11:52:57;;;;;;;7.53;2.00;;;7.40;99.90;;;;;;4895215;29;20724;-60
2022/04/10 11:55:36;;;;;;;10.00;1.80;;;7.70;99.90;;;;;;4895397;29;20693;-60
2022/04/10 11:58:15;;;;;;;7.83;1.97;;;7.80;99.90;;;;;;4895245;29;20244;-59
2022/04/10 12:00:51;;;;;;;12.00;1.80;;;7.70;99.90;;;;;;4901685;29;20247;-61
2022/04/10 12:03:22;;;;;;;6.53;1.83;;;7.60;99.90;;;;;;4900667;29;20345;-60
2022/04/10 12:05:51;;;;;;;6.77;1.80;;;7.70;99.90;;;;;;4900786;29;20241;-59
2022/04/10 12:08:20;;;;;;;6.57;1.57;;;7.80;99.90;;;;;;4895106;29;20665;-59
2022/04/10 12:10:53;;;;;;;6.67;1.83;;;7.80;99.90;;;;;;4900528;29;20319;-61
2022/04/10 12:13:22;;;;;;;7.27;1.40;;;7.80;99.90;;;;;;4895365;29;20269;-60
2022/04/10 12:16:00;;;;;;;8.83;1.50;;;8.00;99.90;;;;;;4895038;29;20280;-60
2022/04/10 12:18:29;;;;;;;6.07;1.70;;;8.10;99.90;;;;;;4894565;29;20281;-59
2022/04/10 12:21:02;;;;;;;7.93;1.63;;;8.20;99.90;;;;;;4894436;29;20245;-59
2022/04/10 12:23:30;;;;;;;8.30;1.83;;;8.20;99.90;;;;;;4900402;29;20325;-59
2022/04/10 12:25:59;;;;;;;8.30;2.03;;;8.00;99.90;;;;;;4900895;29;20237;-60
2022/04/10 12:28:29;;;;;;;9.43;2.00;;;8.10;99.90;;;;;;4896458;29;20241;-60
2022/04/10 12:31:01;;;;;;;9.70;1.87;;;8.20;99.90;;;;;;4899708;29;20246;-59
2022/04/10 12:33:30;;;;;;;12.70;2.13;;;8.30;99.90;;;;;;4897915;29;20249;-60
2022/04/10 12:35:58;;;;;;;18.83;2.60;;;8.30;99.90;;;;;;4898337;29;20245;-60
2022/04/10 12:38:30;;;;;;;10.00;2.03;;;7.90;99.90;;;;;;4898632;29;20659;-59
2022/04/10 12:41:04;;;;;;;12.50;2.50;;;7.40;99.90;;;;;;4897897;29;20260;-60
2022/04/10 12:43:35;;;;;;;13.27;2.60;;;6.90;99.90;;;;;;4903586;29;20608;-60
2022/04/10 12:46:12;;;;;;;8.73;2.40;;;6.70;99.90;;;;;;4898282;29;20245;-60
2022/04/10 12:48:40;;;;;;;11.30;2.60;;;6.70;99.90;;;;;;4897734;29;20646;-60
2022/04/10 12:51:10;;;;;;;6.87;2.13;;;6.80;99.90;;;;;;4902662;29;20244;-60
2022/04/10 12:53:39;;;;;;;16.17;3.00;;;6.80;99.90;;;;;;4897427;29;20760;-59
2022/04/10 12:56:19;;;;;;;12.13;2.30;;;7.00;99.90;;;;;;4898099;29;20741;-60
2022/04/10 12:58:50;;;;;;;18.07;2.83;;;7.20;99.90;;;;;;4891427;29;20248;-60
2022/04/10 13:01:27;;;;;;;13.10;2.80;;;7.20;99.90;;;;;;4898861;29;20244;-60
2022/04/10 13:03:56;;;;;;;15.97;3.40;;;7.40;99.90;;;;;;4892703;29;20244;-60
2022/04/10 13:06:40;;;;;;;18.27;2.93;;;7.60;99.90;;;;;;4897377;29;20241;-61
2022/04/10 13:09:12;;;;;;;10.80;2.10;;;7.50;99.90;;;;;;4897337;29;20366;-59
2022/04/10 13:11:40;;;;;;;10.77;2.10;;;7.60;99.90;;;;;;4897336;29;20237;-59
2022/04/10 13:14:10;;;;;;;12.53;3.07;;;7.60;99.90;;;;;;4897747;29;20244;-59
2022/04/10 13:16:42;;;;;;;12.83;1.80;;;7.60;99.90;;;;;;4903158;29;20245;-59
2022/04/10 13:19:14;;;;;;;12.07;2.27;;;7.60;99.90;;;;;;4897747;29;20789;-59
2022/04/10 13:21:43;;;;;;;8.73;1.83;;;7.70;99.90;;;;;;4903693;29;20407;-59
2022/04/10 13:24:12;;;;;;;10.87;2.37;;;7.90;99.90;;;;;;4900823;29;20233;-59
2022/04/10 13:26:42;;;;;;;10.17;2.13;;;7.90;99.90;;;;;;4896747;29;20237;-59
2022/04/10 13:29:11;;;;;;;11.23;2.10;;;7.80;99.90;;;;;;4898896;29;20266;-60
2022/04/10 13:31:41;;;;;;;8.83;2.13;;;7.80;99.90;;;;;;4895117;29;20241;-60
2022/04/10 13:34:09;;;;;;;8.80;2.07;;;7.80;99.90;;;;;;4897302;29;20747;-59
2022/04/10 13:36:43;;;;;;;8.60;2.80;;;7.70;99.90;;;;;;4896748;29;20781;-59
2022/04/10 13:39:11;;;;;;;6.90;1.73;;;7.60;99.90;;;;;;4897017;29;20624;-60
2022/04/10 13:41:40;;;;;;;7.67;1.50;;;7.50;99.90;;;;;;4896385;29;20575;-59
2022/04/10 13:44:08;;;;;;;11.40;1.73;;;7.70;99.90;;;;;;4897236;29;20590;-59
2022/04/10 13:46:37;;;;;;;9.47;1.70;;;7.70;99.90;;;;;;4896588;29;20265;-59
2022/04/10 13:49:07;;;;;;;7.40;1.50;;;7.70;99.90;;;;;;4896939;29;20270;-59
2022/04/10 13:51:35;;;;;;;7.03;2.13;;;7.70;99.90;;;;;;4900988;29;20324;-59
2022/04/10 13:54:06;;;;;;;5.73;1.50;;;7.80;99.90;;;;;;4896918;29;20331;-59
2022/04/10 13:56:34;;;;;;;7.30;1.60;;;7.90;99.90;;;;;;4902242;29;20241;-59
2022/04/10 13:59:02;;;;;;;6.83;1.60;;;8.20;99.90;;;;;;4896832;29;20695;-59